Westfield, WI (53964)

4:43 AM CDT on September 28, 2016 (GMT -0500)
| | Change Station

Elev -9999 ft 0.00 °N, 0.00 °E | Updated

Cloudy
Cloudy
49 °F
Feels Like 49 °F
N
6
Wind Variable Wind from NNW
Gusts 11 mph

Today
High -- | Low -- °F
--% Chance of Precip.
Yesterday
High -- | Low -- °F
Precip. -- in
Pressure 29.89 in
Visibility 10.0 miles
Clouds Mostly Cloudy 1100 ft
Overcast 7500 ft
Dew Point 48 °F
Humidity 94%
Rainfall --
Snow Depth Not available.
6:53 AM 6:43 PM
Waning Crescent, 6% visible
METAR KY50 280756Z AUTO 31006KT 10SM BKN011 OVC075 09/08 A2981 RMK AO2 SLP121 T00940083
Pressure 29.89 in
Visibility 10.0 miles
Clouds Mostly Cloudy 1100 ft
Overcast 7500 ft
Dew Point 48 °F
Humidity 94%
Rainfall --
Snow Depth Not available.
6:53 AM 6:43 PM
Waning Crescent, 6% visible
METAR KY50 280756Z AUTO 31006KT 10SM BKN011 OVC075 09/08 A2981 RMK AO2 SLP121 T00940083

10-Day Weather Forecast

Almanac

Astronomy

Sep. 28, 2016 Rise Set
Actual Time
Civil Twilight
Nautical Twilight
Astronomical Twilight
Moon
Length of Visible Light
Length of Day
Tomorrow will be .
, % of the Moon is Illuminated

Today's Extremes

State Highs State Lows

Community

WunderPhotos

Upload Photos

1,942,216 photos uploaded!

WunderBlog® & News

Nearby

Air Quality

  Air Quality AQ Index Pollutant
Not available.

Snow Depth

Station Depth Elevation

Earthquake Activity

City Distance Mag. Time & Date
Minimum magnitude displayed is 2.5.

Coastal Water Temperatures

Place Temperature

Stations

Nearby Weather Stations

Station Location Temp. Windchill Dew Point Humidity Wind Precip. Elev Updated Type
                   

Watches & Warnings

There are currently no watches in effect.